createdAt,value
2023-01-15T00:01:03.293Z,0
2023-01-15T00:02:19.597Z,0
2023-01-15T00:03:35.000Z,0
2023-01-15T00:04:52.000Z,0
2023-01-15T00:06:08.000Z,0
2023-01-15T00:07:24.000Z,0
2023-01-15T00:08:41.000Z,0
2023-01-15T00:09:57.372Z,0
2023-01-15T00:11:13.652Z,0
2023-01-15T00:12:28.000Z,0
2023-01-15T00:13:45.259Z,0
2023-01-15T00:15:01.000Z,0
2023-01-15T00:16:17.000Z,0
2023-01-15T00:17:34.000Z,0
2023-01-15T00:18:50.424Z,0
2023-01-15T00:20:06.000Z,0
2023-01-15T00:21:23.019Z,0
2023-01-15T00:22:39.318Z,0
2023-01-15T00:23:55.597Z,0
2023-01-15T00:25:11.000Z,0
2023-01-15T00:26:28.000Z,0
2023-01-15T00:27:44.000Z,0
2023-01-15T00:28:59.000Z,0
2023-01-15T00:30:16.000Z,0
2023-01-15T00:31:32.000Z,0
2023-01-15T00:32:48.687Z,0
2023-01-15T00:34:04.974Z,0
2023-01-15T00:35:21.000Z,0
2023-01-15T00:36:37.000Z,0
2023-01-15T00:37:53.000Z,0
2023-01-15T00:39:10.000Z,0
2023-01-15T00:40:26.000Z,0
2023-01-15T00:41:42.000Z,0
2023-01-15T00:42:59.016Z,0
2023-01-15T00:44:15.320Z,0
2023-01-15T00:45:30.634Z,0
2023-01-15T00:46:46.000Z,0
2023-01-15T00:48:03.000Z,0
2023-01-15T00:49:19.500Z,0
2023-01-15T00:50:35.000Z,0
2023-01-15T00:51:52.000Z,0
2023-01-15T00:53:08.374Z,0
2023-01-15T00:54:24.680Z,0
2023-01-15T00:55:40.988Z,0
2023-01-15T00:56:57.000Z,0
2023-01-15T00:58:13.000Z,0
2023-01-15T00:59:29.000Z,0
2023-01-15T01:00:46.000Z,0
2023-01-15T01:02:01.000Z,0
2023-01-15T01:03:17.746Z,0
2023-01-15T01:04:34.044Z,0
2023-01-15T01:05:50.341Z,0
2023-01-15T01:07:06.000Z,0
2023-01-15T01:08:22.000Z,0
2023-01-15T01:09:39.227Z,0
2023-01-15T01:10:55.000Z,0
2023-01-15T01:12:11.802Z,0
2023-01-15T01:13:28.105Z,0
2023-01-15T01:14:44.000Z,0
2023-01-15T01:16:00.000Z,0
2023-01-15T01:17:16.993Z,0
2023-01-15T01:18:32.000Z,0
2023-01-15T01:19:48.000Z,0
2023-01-15T01:21:04.000Z,0
2023-01-15T01:22:21.000Z,0
2023-01-15T01:23:37.461Z,0
2023-01-15T01:24:53.772Z,0
2023-01-15T01:26:10.046Z,0
2023-01-15T01:27:26.339Z,0
2023-01-15T01:28:42.000Z,0
2023-01-15T01:29:58.000Z,0
2023-01-15T01:31:15.237Z,0
2023-01-15T01:32:31.000Z,0
2023-01-15T01:33:47.000Z,0
2023-01-15T01:35:03.000Z,0
2023-01-15T01:36:19.000Z,0
2023-01-15T01:37:35.705Z,0
2023-01-15T01:38:52.006Z,0
2023-01-15T01:40:08.308Z,0
2023-01-15T01:41:24.000Z,0
2023-01-15T01:42:39.000Z,0
2023-01-15T01:43:56.000Z,0
2023-01-15T01:45:12.504Z,0
2023-01-15T01:46:28.800Z,0
2023-01-15T01:47:45.084Z,0
2023-01-15T01:49:01.000Z,0
2023-01-15T01:50:17.664Z,0
2023-01-15T01:51:33.000Z,0
2023-01-15T01:52:50.000Z,0
2023-01-15T01:54:06.000Z,0
2023-01-15T01:55:22.832Z,0
2023-01-15T01:56:39.135Z,0
2023-01-15T01:57:55.000Z,0
2023-01-15T01:59:10.000Z,0
2023-01-15T02:00:27.000Z,0
2023-01-15T02:01:43.000Z,0
2023-01-15T02:02:59.000Z,0
2023-01-15T02:04:15.000Z,0
2023-01-15T02:05:32.201Z,0
2023-01-15T02:06:48.511Z,0
2023-01-15T02:08:04.000Z,0
2023-01-15T02:09:21.000Z,0
2023-01-15T02:10:37.000Z,0
2023-01-15T02:11:53.000Z,0
2023-01-15T02:13:09.000Z,0
2023-01-15T02:14:26.000Z,0
2023-01-15T02:15:41.000Z,0
2023-01-15T02:16:57.000Z,0
2023-01-15T02:18:14.163Z,0
2023-01-15T02:19:30.000Z,0
2023-01-15T02:20:46.000Z,0
2023-01-15T02:22:03.000Z,0
2023-01-15T02:23:19.000Z,0
2023-01-15T02:24:35.000Z,0
2023-01-15T02:25:51.000Z,0
2023-01-15T02:27:08.222Z,0
2023-01-15T02:28:24.000Z,0
2023-01-15T02:29:40.000Z,0
2023-01-15T02:30:57.000Z,0
2023-01-15T02:32:12.000Z,0
2023-01-15T02:33:28.711Z,0
2023-01-15T02:34:45.000Z,0
2023-01-15T02:36:01.000Z,0
2023-01-15T02:37:17.587Z,0
2023-01-15T02:38:33.871Z,0
2023-01-15T02:39:50.000Z,0
2023-01-15T02:41:06.468Z,0
2023-01-15T02:42:22.000Z,0
2023-01-15T02:43:39.000Z,0
2023-01-15T02:44:55.000Z,0
2023-01-15T02:46:11.000Z,0
2023-01-15T02:47:27.929Z,0
2023-01-15T02:48:43.247Z,0
2023-01-15T02:49:59.000Z,0
2023-01-15T02:51:15.000Z,0
2023-01-15T02:52:32.000Z,0
2023-01-15T02:53:48.000Z,0
2023-01-15T02:55:04.000Z,0
2023-01-15T02:56:21.000Z,0
2023-01-15T02:57:37.285Z,0
2023-01-15T02:58:53.595Z,0
2023-01-15T03:00:09.000Z,0
2023-01-15T03:01:26.000Z,0
2023-01-15T03:02:42.000Z,0
2023-01-15T03:03:58.000Z,0
2023-01-15T03:05:14.000Z,0
2023-01-15T03:06:30.000Z,0
2023-01-15T03:07:46.661Z,0
2023-01-15T03:09:02.949Z,0
2023-01-15T03:10:19.000Z,0
2023-01-15T03:11:35.000Z,0
2023-01-15T03:12:51.000Z,0
2023-01-15T03:14:08.000Z,0
2023-01-15T03:15:24.000Z,0
2023-01-15T03:16:40.000Z,0
2023-01-15T03:17:57.000Z,0
2023-01-15T03:19:13.287Z,0
2023-01-15T03:20:29.580Z,0
2023-01-15T03:21:45.000Z,0
2023-01-15T03:23:01.000Z,0
2023-01-15T03:24:17.000Z,0
2023-01-15T03:25:33.000Z,0
2023-01-15T03:26:50.000Z,0
2023-01-15T03:28:06.000Z,0
2023-01-15T03:29:22.650Z,0
2023-01-15T03:30:38.968Z,0
2023-01-15T03:31:55.000Z,0
2023-01-15T03:33:11.000Z,0
2023-01-15T03:34:27.000Z,0
2023-01-15T03:35:44.000Z,0
2023-01-15T03:37:00.000Z,0
2023-01-15T03:38:16.000Z,0
2023-01-15T03:39:32.000Z,0
2023-01-15T03:40:48.327Z,0
2023-01-15T03:42:04.613Z,0
2023-01-15T03:43:20.000Z,0
2023-01-15T03:44:37.000Z,0
2023-01-15T03:45:53.000Z,0
2023-01-15T03:47:09.000Z,0
2023-01-15T03:48:26.000Z,0
2023-01-15T03:49:42.377Z,0
2023-01-15T03:50:58.000Z,0
2023-01-15T03:52:14.000Z,0
2023-01-15T03:53:31.000Z,0
2023-01-15T03:54:47.000Z,0
2023-01-15T03:56:02.000Z,0
2023-01-15T03:57:19.000Z,0
2023-01-15T03:58:35.000Z,0
2023-01-15T03:59:51.000Z,0
2023-01-15T04:01:08.043Z,0
2023-01-15T04:02:24.322Z,0
2023-01-15T04:03:40.000Z,0
2023-01-15T04:04:56.000Z,0
2023-01-15T04:06:13.000Z,0
2023-01-15T04:07:29.000Z,0
2023-01-15T04:08:45.000Z,0
2023-01-15T04:10:02.000Z,0
2023-01-15T04:11:18.371Z,0
2023-01-15T04:12:33.682Z,0
2023-01-15T04:13:49.997Z,0
2023-01-15T04:15:06.000Z,0
2023-01-15T04:16:22.000Z,0
2023-01-15T04:17:38.863Z,0
2023-01-15T04:18:55.000Z,0
2023-01-15T04:20:11.000Z,0
2023-01-15T04:21:27.000Z,0
2023-01-15T04:22:44.041Z,0
2023-01-15T04:24:00.325Z,0
2023-01-15T04:25:16.000Z,0
2023-01-15T04:26:32.000Z,0
2023-01-15T04:27:49.000Z,0
2023-01-15T04:29:04.000Z,0
2023-01-15T04:30:20.000Z,0
2023-01-15T04:31:37.000Z,0
2023-01-15T04:32:53.403Z,0
2023-01-15T04:34:09.698Z,0
2023-01-15T04:35:26.000Z,0
2023-01-15T04:36:42.000Z,0
2023-01-15T04:37:58.000Z,0
2023-01-15T04:39:14.000Z,0
2023-01-15T04:40:31.167Z,0
2023-01-15T04:41:47.000Z,0
2023-01-15T04:43:03.762Z,0
2023-01-15T04:44:20.054Z,0
2023-01-15T04:45:35.358Z,0
2023-01-15T04:46:51.000Z,0
2023-01-15T04:48:07.000Z,0
2023-01-15T04:49:24.000Z,0
2023-01-15T04:50:40.000Z,0
2023-01-15T04:51:56.000Z,0
2023-01-15T04:53:13.131Z,0
2023-01-15T04:54:29.406Z,0
2023-01-15T04:55:45.000Z,0
2023-01-15T04:57:02.000Z,0
2023-01-15T04:58:18.000Z,0
2023-01-15T04:59:34.587Z,0
2023-01-15T05:00:50.000Z,0
2023-01-15T05:02:06.000Z,0
2023-01-15T05:03:22.487Z,0
2023-01-15T05:04:38.767Z,0
2023-01-15T05:05:55.084Z,0
2023-01-15T05:07:11.000Z,0
2023-01-15T05:08:27.000Z,0
2023-01-15T05:09:43.000Z,0
2023-01-15T05:11:00.000Z,0
2023-01-15T05:12:16.000Z,0
2023-01-15T05:13:32.829Z,0
2023-01-15T05:14:49.000Z,0
2023-01-15T05:16:05.414Z,0
2023-01-15T05:17:21.000Z,0
2023-01-15T05:18:37.000Z,0
2023-01-15T05:19:53.000Z,0
2023-01-15T05:21:09.000Z,0
2023-01-15T05:22:25.000Z,0
2023-01-15T05:23:42.000Z,0
2023-01-15T05:24:58.000Z,0
2023-01-15T05:26:14.784Z,0
2023-01-15T05:27:31.079Z,0
2023-01-15T05:28:47.000Z,0
2023-01-15T05:30:03.000Z,0
2023-01-15T05:31:19.947Z,0
2023-01-15T05:32:36.000Z,0
2023-01-15T05:33:52.000Z,0
2023-01-15T05:35:07.000Z,0
2023-01-15T05:36:24.165Z,0
2023-01-15T05:37:40.430Z,0
2023-01-15T05:38:56.000Z,0
2023-01-15T05:40:13.000Z,0
2023-01-15T05:41:29.000Z,0
2023-01-15T05:42:45.000Z,0
2023-01-15T05:44:01.000Z,0
2023-01-15T05:45:18.000Z,0
2023-01-15T05:46:34.484Z,0
2023-01-15T05:47:50.000Z,0
2023-01-15T05:49:07.000Z,0
2023-01-15T05:50:23.000Z,0
2023-01-15T05:51:38.000Z,0
2023-01-15T05:52:55.000Z,0
2023-01-15T05:54:11.284Z,0
2023-01-15T05:55:27.000Z,0
2023-01-15T05:56:43.000Z,0
2023-01-15T05:57:59.000Z,0
2023-01-15T05:59:15.000Z,0
2023-01-15T06:00:31.000Z,0
2023-01-15T06:01:48.000Z,0
2023-01-15T06:03:04.000Z,0
2023-01-15T06:04:20.000Z,0
2023-01-15T06:05:36.000Z,0
2023-01-15T06:06:53.236Z,0
2023-01-15T06:08:09.543Z,0
2023-01-15T06:09:25.000Z,0
2023-01-15T06:10:42.000Z,0
2023-01-15T06:11:58.000Z,0
2023-01-15T06:13:14.000Z,0
2023-01-15T06:14:30.000Z,0
2023-01-15T06:15:46.000Z,0
2023-01-15T06:17:02.000Z,0
2023-01-15T06:18:18.907Z,0
2023-01-15T06:19:35.000Z,0
2023-01-15T06:20:51.000Z,0
2023-01-15T06:22:07.000Z,0
2023-01-15T06:23:24.000Z,0
2023-01-15T06:24:40.000Z,0
2023-01-15T06:25:56.000Z,0
2023-01-15T06:27:12.942Z,0
2023-01-15T06:28:29.235Z,0
2023-01-15T06:29:45.000Z,0
2023-01-15T06:31:00.000Z,0
2023-01-15T06:32:17.000Z,0
2023-01-15T06:33:33.000Z,0
2023-01-15T06:34:49.000Z,0
2023-01-15T06:36:06.000Z,0
2023-01-15T06:37:22.000Z,0
2023-01-15T06:38:38.000Z,0
2023-01-15T06:39:54.898Z,0
2023-01-15T06:41:11.000Z,0
2023-01-15T06:42:27.000Z,0
2023-01-15T06:43:43.000Z,1
2023-01-15T06:45:00.000Z,1
2023-01-15T06:46:16.000Z,1
2023-01-15T06:47:31.000Z,2
2023-01-15T06:48:47.000Z,2
2023-01-15T06:50:03.000Z,2
2023-01-15T06:51:20.000Z,1
2023-01-15T06:52:36.000Z,1
2023-01-15T06:53:52.000Z,3
2023-01-15T06:55:08.000Z,4
2023-01-15T06:56:25.000Z,4
2023-01-15T06:57:41.000Z,7
2023-01-15T06:58:57.000Z,4
2023-01-15T07:00:13.874Z,6
2023-01-15T07:01:30.000Z,8
2023-01-15T07:02:46.000Z,10
2023-01-15T07:04:01.000Z,9
2023-01-15T07:05:17.000Z,11
2023-01-15T07:06:34.000Z,14
2023-01-15T07:07:50.323Z,19
2023-01-15T07:09:06.000Z,21
2023-01-15T07:10:22.804Z,25
2023-01-15T07:11:39.050Z,27
2023-01-15T07:12:55.000Z,28
2023-01-15T07:14:11.000Z,33
2023-01-15T07:15:27.000Z,38
2023-01-15T07:16:44.000Z,37
2023-01-15T07:18:00.000Z,42
2023-01-15T07:19:16.000Z,43
2023-01-15T07:20:31.000Z,36
2023-01-15T07:21:47.000Z,38
2023-01-15T07:23:04.213Z,41
2023-01-15T07:24:20.000Z,40
2023-01-15T07:25:36.688Z,40
2023-01-15T07:26:52.000Z,46
2023-01-15T07:28:09.000Z,60
2023-01-15T07:29:25.000Z,80
2023-01-15T07:30:41.658Z,91
2023-01-15T07:31:57.895Z,94
2023-01-15T07:33:14.133Z,80
2023-01-15T07:34:30.000Z,66
2023-01-15T07:35:46.000Z,64
2023-01-15T07:37:01.000Z,68
2023-01-15T07:38:18.000Z,69
2023-01-15T07:39:34.000Z,72
2023-01-15T07:40:50.000Z,83
2023-01-15T07:42:06.000Z,91
2023-01-15T07:43:23.000Z,102
2023-01-15T07:44:39.304Z,116
2023-01-15T07:45:55.000Z,101
2023-01-15T07:47:11.000Z,89
2023-01-15T07:48:28.000Z,99
2023-01-15T07:49:44.000Z,127
2023-01-15T07:51:00.000Z,143
2023-01-15T07:52:16.000Z,160
2023-01-15T07:53:32.010Z,154
2023-01-15T07:54:48.244Z,153
2023-01-15T07:56:04.491Z,163
2023-01-15T07:57:20.000Z,189
2023-01-15T07:58:36.000Z,217
2023-01-15T07:59:53.212Z,221
2023-01-15T08:01:09.000Z,235
2023-01-15T08:02:25.000Z,221
2023-01-15T08:03:41.906Z,220
2023-01-15T08:04:58.165Z,274
2023-01-15T08:06:14.397Z,306
2023-01-15T08:07:30.000Z,293
2023-01-15T08:08:46.000Z,238
2023-01-15T08:10:02.000Z,244
2023-01-15T08:11:18.000Z,245
2023-01-15T08:12:34.000Z,246
2023-01-15T08:13:50.862Z,288
2023-01-15T08:15:07.000Z,269
2023-01-15T08:16:23.347Z,291
2023-01-15T08:17:39.577Z,322
2023-01-15T08:18:55.000Z,300
2023-01-15T08:20:12.000Z,279
2023-01-15T08:21:28.000Z,354
2023-01-15T08:22:44.000Z,418
2023-01-15T08:24:00.000Z,347
2023-01-15T08:25:17.000Z,343
2023-01-15T08:26:32.264Z,348
2023-01-15T08:27:48.000Z,359
2023-01-15T08:29:04.746Z,400
2023-01-15T08:30:21.000Z,374
2023-01-15T08:31:37.222Z,328
2023-01-15T08:32:53.000Z,295
2023-01-15T08:34:09.000Z,294
2023-01-15T08:35:25.000Z,312
2023-01-15T08:36:42.000Z,291
2023-01-15T08:37:58.000Z,274
2023-01-15T08:39:14.674Z,290
2023-01-15T08:40:30.000Z,352
2023-01-15T08:41:47.000Z,391
2023-01-15T08:43:02.000Z,425
2023-01-15T08:44:18.000Z,493
2023-01-15T08:45:34.000Z,487
2023-01-15T08:46:51.119Z,456
2023-01-15T08:48:07.356Z,507
2023-01-15T08:49:23.587Z,569
2023-01-15T08:50:39.845Z,651
2023-01-15T08:51:56.000Z,633
2023-01-15T08:53:12.000Z,511
2023-01-15T08:54:28.564Z,456
2023-01-15T08:55:44.000Z,458
2023-01-15T08:57:01.000Z,520
2023-01-15T08:58:17.000Z,615
2023-01-15T08:59:32.525Z,701
2023-01-15T09:00:48.764Z,734
2023-01-15T09:02:05.000Z,733
2023-01-15T09:03:21.000Z,745
2023-01-15T09:04:37.000Z,747
2023-01-15T09:05:53.000Z,757
2023-01-15T09:07:09.000Z,735
2023-01-15T09:08:26.000Z,703
2023-01-15T09:09:42.434Z,759
2023-01-15T09:10:58.707Z,901
2023-01-15T09:12:14.932Z,850
2023-01-15T09:13:31.000Z,737
2023-01-15T09:14:47.000Z,741
2023-01-15T09:16:02.000Z,793
2023-01-15T09:17:18.000Z,803
2023-01-15T09:18:35.000Z,844
2023-01-15T09:19:51.000Z,879
2023-01-15T09:21:07.611Z,913
2023-01-15T09:22:23.851Z,969
2023-01-15T09:23:40.000Z,981
2023-01-15T09:24:56.000Z,929
2023-01-15T09:26:12.591Z,922
2023-01-15T09:27:28.000Z,948
2023-01-15T09:28:45.000Z,972
2023-01-15T09:30:01.000Z,1016
2023-01-15T09:31:17.550Z,1058
2023-01-15T09:32:32.784Z,1066
2023-01-15T09:33:49.049Z,1057
2023-01-15T09:35:05.000Z,1106
2023-01-15T09:36:21.000Z,1199
2023-01-15T09:37:37.000Z,1226
2023-01-15T09:38:54.000Z,1252
2023-01-15T09:40:10.236Z,1270
2023-01-15T09:41:26.000Z,1317
2023-01-15T09:42:42.716Z,1380
2023-01-15T09:43:58.965Z,1388
2023-01-15T09:45:15.000Z,1356
2023-01-15T09:46:31.000Z,1375
2023-01-15T09:47:47.666Z,1413
2023-01-15T09:49:02.000Z,1440
2023-01-15T09:50:19.000Z,1435
2023-01-15T09:51:35.000Z,1444
2023-01-15T09:52:51.652Z,1470
2023-01-15T09:54:07.880Z,1499
2023-01-15T09:55:24.117Z,1534
2023-01-15T09:56:40.000Z,1565
2023-01-15T09:57:56.000Z,1572
2023-01-15T09:59:12.000Z,1592
2023-01-15T10:00:29.000Z,1643
2023-01-15T10:01:45.000Z,1703
2023-01-15T10:03:01.000Z,1729
2023-01-15T10:04:17.827Z,1743
2023-01-15T10:05:33.059Z,1786
2023-01-15T10:06:49.000Z,1828
2023-01-15T10:08:05.000Z,1843
2023-01-15T10:09:21.000Z,1851
2023-01-15T10:10:38.000Z,1832
2023-01-15T10:11:54.000Z,1808
2023-01-15T10:13:09.519Z,1790
2023-01-15T10:14:25.765Z,1772
2023-01-15T10:15:42.021Z,1768
2023-01-15T10:16:58.244Z,1781
2023-01-15T10:18:14.470Z,1796
2023-01-15T10:19:30.722Z,1815
2023-01-15T10:20:46.964Z,1848
2023-01-15T10:22:03.000Z,1869
2023-01-15T10:23:19.445Z,1881
2023-01-15T10:24:35.000Z,1882
2023-01-15T10:25:51.922Z,1892
2023-01-15T10:27:08.176Z,1906
2023-01-15T10:28:24.000Z,1911
2023-01-15T10:29:39.000Z,1897
2023-01-15T10:30:55.903Z,1883
2023-01-15T10:32:12.125Z,1847
2023-01-15T10:33:28.379Z,1823
2023-01-15T10:34:44.635Z,1776
2023-01-15T10:36:00.863Z,1770
2023-01-15T10:37:17.114Z,1763
2023-01-15T10:38:33.356Z,1708
2023-01-15T10:39:49.593Z,1634
2023-01-15T10:41:05.825Z,1578
2023-01-15T10:42:22.073Z,1559
2023-01-15T10:43:38.301Z,1562
2023-01-15T10:44:54.000Z,1555
2023-01-15T10:46:09.000Z,1599
2023-01-15T10:47:26.047Z,1688
2023-01-15T10:48:42.259Z,1703
2023-01-15T10:49:58.496Z,1688
2023-01-15T10:51:14.000Z,1661
2023-01-15T10:52:31.000Z,1689
2023-01-15T10:53:47.000Z,1750
2023-01-15T10:55:03.000Z,1783
2023-01-15T10:56:19.000Z,1736
2023-01-15T10:57:35.000Z,1686
2023-01-15T10:58:52.195Z,1769
2023-01-15T11:00:08.435Z,1850
2023-01-15T11:01:24.683Z,1978
2023-01-15T11:02:39.947Z,2150
2023-01-15T11:03:56.184Z,2284
2023-01-15T11:05:12.409Z,2503
2023-01-15T11:06:28.664Z,2783
2023-01-15T11:07:44.000Z,2914
2023-01-15T11:09:01.126Z,2982
2023-01-15T11:10:17.375Z,3132
2023-01-15T11:11:33.600Z,3228
2023-01-15T11:12:49.000Z,3225
2023-01-15T11:14:06.099Z,3097
2023-01-15T11:15:22.000Z,3042
2023-01-15T11:16:38.574Z,3018
2023-01-15T11:17:54.000Z,2968
2023-01-15T11:19:10.076Z,2900
2023-01-15T11:20:26.301Z,2961
2023-01-15T11:21:42.526Z,3023
2023-01-15T11:22:58.786Z,3136
2023-01-15T11:24:15.000Z,3189
2023-01-15T11:25:31.272Z,3146
2023-01-15T11:26:47.505Z,3168
2023-01-15T11:28:03.757Z,3102
2023-01-15T11:29:19.986Z,3108
2023-01-15T11:30:36.222Z,3028
2023-01-15T11:31:52.469Z,2880
2023-01-15T11:33:08.702Z,2743
2023-01-15T11:34:24.938Z,2591
2023-01-15T11:35:40.000Z,2494
2023-01-15T11:36:56.451Z,2446
2023-01-15T11:38:12.674Z,2451
2023-01-15T11:39:28.000Z,2421
2023-01-15T11:40:45.000Z,2463
2023-01-15T11:42:01.383Z,2616
2023-01-15T11:43:17.622Z,2605
2023-01-15T11:44:33.856Z,2563
2023-01-15T11:45:50.114Z,2530
2023-01-15T11:47:06.334Z,2588
2023-01-15T11:48:22.000Z,2561
2023-01-15T11:49:38.830Z,2562
2023-01-15T11:50:55.070Z,2557
2023-01-15T11:52:10.335Z,2453
2023-01-15T11:53:26.577Z,2452
2023-01-15T11:54:42.788Z,2522
2023-01-15T11:55:59.049Z,2494
2023-01-15T11:57:15.295Z,2387
2023-01-15T11:58:31.536Z,2279
2023-01-15T11:59:47.760Z,2195
2023-01-15T12:01:04.019Z,2121
2023-01-15T12:02:20.257Z,1988
2023-01-15T12:03:36.000Z,1800
2023-01-15T12:04:52.725Z,1615
2023-01-15T12:06:08.970Z,1561
2023-01-15T12:07:25.204Z,1654
2023-01-15T12:08:40.464Z,1784
2023-01-15T12:09:56.682Z,1894
2023-01-15T12:11:12.940Z,1947
2023-01-15T12:12:29.000Z,1887
2023-01-15T12:13:45.410Z,1792
2023-01-15T12:15:01.000Z,1717
2023-01-15T12:16:17.893Z,1677
2023-01-15T12:17:34.121Z,1683
2023-01-15T12:18:50.390Z,1717
2023-01-15T12:20:06.610Z,1724
2023-01-15T12:21:22.859Z,1642
2023-01-15T12:22:39.000Z,1578
2023-01-15T12:23:55.337Z,1541
2023-01-15T12:25:10.000Z,1546
2023-01-15T12:26:26.828Z,1547
2023-01-15T12:27:43.079Z,1570
2023-01-15T12:28:59.000Z,1639
2023-01-15T12:30:15.547Z,1661
2023-01-15T12:31:31.000Z,1677
2023-01-15T12:32:48.027Z,1733
2023-01-15T12:34:04.258Z,1841
2023-01-15T12:35:20.000Z,1948
2023-01-15T12:36:36.746Z,1989
2023-01-15T12:37:52.999Z,2013
2023-01-15T12:39:09.233Z,2030
2023-01-15T12:40:25.000Z,2116
2023-01-15T12:41:40.000Z,2254
2023-01-15T12:42:56.946Z,2339
2023-01-15T12:44:13.218Z,2385
2023-01-15T12:45:29.443Z,2394
2023-01-15T12:46:45.697Z,2386
2023-01-15T12:48:01.923Z,2278
2023-01-15T12:49:18.180Z,2128
2023-01-15T12:50:34.000Z,1921
2023-01-15T12:51:50.644Z,1808
2023-01-15T12:53:06.873Z,1799
2023-01-15T12:54:23.000Z,1775
2023-01-15T12:55:39.358Z,1682
2023-01-15T12:56:55.000Z,1449
2023-01-15T12:58:10.846Z,1335
2023-01-15T12:59:27.094Z,1485
2023-01-15T13:00:43.324Z,1617
2023-01-15T13:01:59.000Z,1523
2023-01-15T13:03:15.000Z,1439
2023-01-15T13:04:32.000Z,1444
2023-01-15T13:05:48.293Z,1429
2023-01-15T13:07:04.000Z,1343
2023-01-15T13:08:20.783Z,1147
2023-01-15T13:09:37.016Z,1048
2023-01-15T13:10:53.234Z,1337
2023-01-15T13:12:09.492Z,1690
2023-01-15T13:13:25.747Z,1725
2023-01-15T13:14:40.995Z,1583
2023-01-15T13:15:57.209Z,1379
2023-01-15T13:17:13.000Z,1370
2023-01-15T13:18:29.718Z,1400
2023-01-15T13:19:45.000Z,1398
2023-01-15T13:21:02.190Z,1211
2023-01-15T13:22:18.444Z,1042
2023-01-15T13:23:34.655Z,929
2023-01-15T13:24:50.912Z,952
2023-01-15T13:26:07.147Z,967
2023-01-15T13:27:23.000Z,969
2023-01-15T13:28:39.623Z,902
2023-01-15T13:29:55.864Z,774
2023-01-15T13:31:11.110Z,664
2023-01-15T13:32:27.368Z,752
2023-01-15T13:33:43.588Z,860
2023-01-15T13:34:59.000Z,809
2023-01-15T13:36:16.091Z,799
2023-01-15T13:37:32.327Z,1369
2023-01-15T13:38:48.000Z,2043
2023-01-15T13:40:04.000Z,1998
2023-01-15T13:41:21.000Z,1543
2023-01-15T13:42:37.287Z,1177
2023-01-15T13:43:53.520Z,1051
2023-01-15T13:45:09.750Z,1086
2023-01-15T13:46:25.989Z,1001
2023-01-15T13:47:42.219Z,857
2023-01-15T13:48:57.000Z,1073
2023-01-15T13:50:13.000Z,1238
2023-01-15T13:51:29.000Z,1153
2023-01-15T13:52:46.202Z,1195
2023-01-15T13:54:02.432Z,1558
2023-01-15T13:55:18.671Z,1449
2023-01-15T13:56:34.913Z,1090
2023-01-15T13:57:51.162Z,1349
2023-01-15T13:59:07.394Z,1717
2023-01-15T14:00:23.642Z,1458
2023-01-15T14:01:39.865Z,1249
2023-01-15T14:02:56.109Z,1286
2023-01-15T14:04:12.000Z,1462
2023-01-15T14:05:27.607Z,1807
2023-01-15T14:06:43.847Z,1698
2023-01-15T14:08:00.087Z,1400
2023-01-15T14:09:16.000Z,1482
2023-01-15T14:10:32.574Z,1486
2023-01-15T14:11:48.802Z,1452
2023-01-15T14:13:05.051Z,1373
2023-01-15T14:14:21.278Z,1538
2023-01-15T14:15:37.524Z,1414
2023-01-15T14:16:53.765Z,1212
2023-01-15T14:18:10.002Z,1109
2023-01-15T14:19:26.245Z,1031
2023-01-15T14:20:42.486Z,1457
2023-01-15T14:21:57.736Z,1533
2023-01-15T14:23:13.990Z,1315
2023-01-15T14:24:30.209Z,1162
2023-01-15T14:25:46.000Z,1292
2023-01-15T14:27:02.687Z,1502
2023-01-15T14:28:17.959Z,1449
2023-01-15T14:29:34.196Z,1299
2023-01-15T14:30:50.435Z,1386
2023-01-15T14:32:06.685Z,1420
2023-01-15T14:33:22.914Z,1303
2023-01-15T14:34:39.162Z,1240
2023-01-15T14:35:55.000Z,1346
2023-01-15T14:37:11.629Z,1340
2023-01-15T14:38:27.888Z,1340
2023-01-15T14:39:44.121Z,1153
2023-01-15T14:41:00.355Z,1183
2023-01-15T14:42:16.000Z,1257
2023-01-15T14:43:32.000Z,1220
2023-01-15T14:44:48.000Z,1079
2023-01-15T14:46:04.000Z,1213
2023-01-15T14:47:20.000Z,1099
2023-01-15T14:48:36.000Z,1150
2023-01-15T14:49:53.052Z,1184
2023-01-15T14:51:09.000Z,1197
2023-01-15T14:52:25.533Z,1002
2023-01-15T14:53:41.769Z,997
2023-01-15T14:54:58.009Z,1093
2023-01-15T14:56:14.258Z,983
2023-01-15T14:57:30.492Z,962
2023-01-15T14:58:46.000Z,884
2023-01-15T15:00:02.961Z,865
2023-01-15T15:01:18.000Z,835
2023-01-15T15:02:34.459Z,801
2023-01-15T15:03:50.700Z,753
2023-01-15T15:05:06.938Z,693
2023-01-15T15:06:23.000Z,676
2023-01-15T15:07:39.421Z,714
2023-01-15T15:08:55.000Z,638
2023-01-15T15:10:11.904Z,606
2023-01-15T15:11:28.150Z,578
2023-01-15T15:12:44.387Z,550
2023-01-15T15:14:00.618Z,524
2023-01-15T15:15:16.860Z,487
2023-01-15T15:16:33.000Z,465
2023-01-15T15:17:48.352Z,432
2023-01-15T15:19:04.000Z,409
2023-01-15T15:20:20.000Z,381
2023-01-15T15:21:37.000Z,355
2023-01-15T15:22:53.000Z,324
2023-01-15T15:24:09.000Z,293
2023-01-15T15:25:25.794Z,272
2023-01-15T15:26:42.041Z,253
2023-01-15T15:27:58.000Z,228
2023-01-15T15:29:14.000Z,204
2023-01-15T15:30:30.000Z,185
2023-01-15T15:31:47.000Z,166
2023-01-15T15:33:03.000Z,149
2023-01-15T15:34:18.000Z,133
2023-01-15T15:35:34.000Z,122
2023-01-15T15:36:51.000Z,106
2023-01-15T15:38:07.209Z,90
2023-01-15T15:39:23.438Z,78
2023-01-15T15:40:39.691Z,66
2023-01-15T15:41:55.924Z,61
2023-01-15T15:43:12.000Z,51
2023-01-15T15:44:28.414Z,45
2023-01-15T15:45:44.645Z,33
2023-01-15T15:47:00.884Z,29
2023-01-15T15:48:17.122Z,26
2023-01-15T15:49:33.371Z,24
2023-01-15T15:50:48.636Z,17
2023-01-15T15:52:04.863Z,16
2023-01-15T15:53:21.105Z,13
2023-01-15T15:54:37.342Z,12
2023-01-15T15:55:53.574Z,10
2023-01-15T15:57:09.825Z,9
2023-01-15T15:58:26.057Z,7
2023-01-15T15:59:42.306Z,5
2023-01-15T16:00:58.545Z,5
2023-01-15T16:02:14.782Z,6
2023-01-15T16:03:31.020Z,3
2023-01-15T16:04:47.258Z,6
2023-01-15T16:06:03.000Z,1
2023-01-15T16:07:18.000Z,2
2023-01-15T16:08:34.983Z,2
2023-01-15T16:09:51.292Z,0
2023-01-15T16:11:07.531Z,1
2023-01-15T16:12:23.768Z,1
2023-01-15T16:13:40.000Z,1
2023-01-15T16:14:56.306Z,0
2023-01-15T16:16:12.597Z,0
2023-01-15T16:17:28.892Z,0
2023-01-15T16:18:45.179Z,0
2023-01-15T16:20:01.467Z,0
2023-01-15T16:21:17.763Z,0
2023-01-15T16:22:34.000Z,0
2023-01-15T16:23:49.000Z,0
2023-01-15T16:25:05.000Z,0
2023-01-15T16:26:21.000Z,0
2023-01-15T16:27:38.000Z,0
2023-01-15T16:28:54.000Z,0
2023-01-15T16:30:10.852Z,0
2023-01-15T16:31:27.136Z,0
2023-01-15T16:32:43.000Z,0
2023-01-15T16:33:59.000Z,0
2023-01-15T16:35:16.000Z,0
2023-01-15T16:36:32.000Z,0
2023-01-15T16:37:48.000Z,0
2023-01-15T16:39:04.000Z,0
2023-01-15T16:40:20.000Z,0
2023-01-15T16:41:36.497Z,0
2023-01-15T16:42:52.796Z,0
2023-01-15T16:44:09.000Z,0
2023-01-15T16:45:25.000Z,0
2023-01-15T16:46:41.000Z,0
2023-01-15T16:47:58.000Z,0
2023-01-15T16:49:14.000Z,0
2023-01-15T16:50:30.000Z,0
2023-01-15T16:51:46.857Z,0
2023-01-15T16:53:03.141Z,0
2023-01-15T16:54:19.432Z,0
2023-01-15T16:55:35.000Z,0
2023-01-15T16:56:51.048Z,0
2023-01-15T16:58:07.344Z,0
2023-01-15T16:59:23.638Z,0
2023-01-15T17:00:39.000Z,0
2023-01-15T17:01:56.226Z,0
2023-01-15T17:03:12.520Z,0
2023-01-15T17:04:28.808Z,0
2023-01-15T17:05:45.097Z,0
2023-01-15T17:07:01.399Z,0
2023-01-15T17:08:17.682Z,0
2023-01-15T17:09:33.996Z,0
2023-01-15T17:10:50.000Z,0
2023-01-15T17:12:06.561Z,0
2023-01-15T17:13:21.882Z,0
2023-01-15T17:14:38.174Z,0
2023-01-15T17:15:54.000Z,0
2023-01-15T17:17:10.772Z,0
2023-01-15T17:18:27.000Z,0
2023-01-15T17:19:43.350Z,0
2023-01-15T17:20:59.000Z,0
2023-01-15T17:22:15.938Z,0
2023-01-15T17:23:32.233Z,0
2023-01-15T17:24:48.530Z,0
2023-01-15T17:26:04.000Z,0
2023-01-15T17:27:21.108Z,0
2023-01-15T17:28:37.407Z,0
2023-01-15T17:29:52.717Z,0
2023-01-15T17:31:09.019Z,0
2023-01-15T17:32:25.299Z,0
2023-01-15T17:33:41.596Z,0
2023-01-15T17:34:57.888Z,0
2023-01-15T17:36:14.188Z,0
2023-01-15T17:37:30.485Z,0
2023-01-15T17:38:46.766Z,0
2023-01-15T17:40:03.076Z,0
2023-01-15T17:41:19.358Z,0
2023-01-15T17:42:35.650Z,0
2023-01-15T17:43:51.951Z,0
2023-01-15T17:45:08.236Z,0
2023-01-15T17:46:23.548Z,0
2023-01-15T17:47:39.000Z,0
2023-01-15T17:48:56.000Z,0
2023-01-15T17:50:12.429Z,0
2023-01-15T17:51:28.000Z,0
2023-01-15T17:52:45.000Z,0
2023-01-15T17:54:01.306Z,0
2023-01-15T17:55:17.599Z,0
2023-01-15T17:56:33.898Z,0
2023-01-15T17:57:50.000Z,0